sensor_id;sensor_type;location;lat;lon;timestamp;pressure;altitude;pressure_sealevel;temperature;humidity
13420;BME280;6781;58.440;15.470;2023-07-13T00:00:41;101097.66;;;13.68;100.00
13420;BME280;6781;58.440;15.470;2023-07-13T00:03:09;101173.47;;;14.07;100.00
13420;BME280;6781;58.440;15.470;2023-07-13T00:05:39;101152.50;;;13.88;100.00
13420;BME280;6781;58.440;15.470;2023-07-13T00:08:06;101221.81;;;14.32;100.00
13420;BME280;6781;58.440;15.470;2023-07-13T00:10:39;101164.56;;;14.10;100.00
13420;BME280;6781;58.440;15.470;2023-07-13T00:13:06;101164.50;;;14.00;100.00
13420;BME280;6781;58.440;15.470;2023-07-13T00:15:34;101102.00;;;13.58;100.00
13420;BME280;6781;58.440;15.470;2023-07-13T00:18:01;101151.66;;;14.08;100.00
13420;BME280;6781;58.440;15.470;2023-07-13T00:20:28;101109.00;;;13.88;100.00
13420;BME280;6781;58.440;15.470;2023-07-13T00:22:55;101153.91;;;14.22;100.00
13420;BME280;6781;58.440;15.470;2023-07-13T00:25:23;101141.13;;;14.19;100.00
13420;BME280;6781;58.440;15.470;2023-07-13T00:27:53;101043.44;;;13.62;100.00
13420;BME280;6781;58.440;15.470;2023-07-13T00:30:20;101154.94;;;14.41;100.00
13420;BME280;6781;58.440;15.470;2023-07-13T00:32:48;101147.72;;;14.44;100.00
13420;BME280;6781;58.440;15.470;2023-07-13T00:35:15;101082.69;;;14.01;100.00
13420;BME280;6781;58.440;15.470;2023-07-13T00:37:43;101122.06;;;14.28;100.00
13420;BME280;6781;58.440;15.470;2023-07-13T00:40:11;101145.13;;;14.54;100.00
13420;BME280;6781;58.440;15.470;2023-07-13T00:42:38;101149.41;;;14.55;100.00
13420;BME280;6781;58.440;15.470;2023-07-13T00:48:15;101160.09;;;14.52;100.00
13420;BME280;6781;58.440;15.470;2023-07-13T00:50:45;100965.88;;;13.24;100.00
13420;BME280;6781;58.440;15.470;2023-07-13T00:53:13;101150.19;;;14.46;100.00
13420;BME280;6781;58.440;15.470;2023-07-13T00:55:42;101095.31;;;13.96;100.00
13420;BME280;6781;58.440;15.470;2023-07-13T00:58:09;101100.03;;;14.12;100.00
13420;BME280;6781;58.440;15.470;2023-07-13T01:00:39;101015.41;;;13.55;100.00
13420;BME280;6781;58.440;15.470;2023-07-13T01:03:06;101116.22;;;14.06;100.00
13420;BME280;6781;58.440;15.470;2023-07-13T01:05:35;101146.81;;;14.34;100.00
13420;BME280;6781;58.440;15.470;2023-07-13T01:08:03;101153.00;;;14.33;100.00
13420;BME280;6781;58.440;15.470;2023-07-13T01:10:31;101155.44;;;14.25;100.00
13420;BME280;6781;58.440;15.470;2023-07-13T01:13:04;101155.03;;;14.29;100.00
13420;BME280;6781;58.440;15.470;2023-07-13T01:15:36;101174.00;;;14.31;100.00
13420;BME280;6781;58.440;15.470;2023-07-13T01:18:10;101147.47;;;14.26;100.00
13420;BME280;6781;58.440;15.470;2023-07-13T01:20:38;101049.16;;;13.56;100.00
13420;BME280;6781;58.440;15.470;2023-07-13T01:23:09;101081.50;;;13.75;100.00
13420;BME280;6781;58.440;15.470;2023-07-13T01:25:41;100997.84;;;13.26;100.00
13420;BME280;6781;58.440;15.470;2023-07-13T01:28:08;101120.72;;;14.04;100.00
13420;BME280;6781;58.440;15.470;2023-07-13T01:30:36;100938.44;;;12.99;100.00
13420;BME280;6781;58.440;15.470;2023-07-13T01:33:05;101012.44;;;13.39;100.00
13420;BME280;6781;58.440;15.470;2023-07-13T01:35:32;100957.09;;;13.04;100.00
13420;BME280;6781;58.440;15.470;2023-07-13T01:38:00;101145.13;;;14.23;100.00
13420;BME280;6781;58.440;15.470;2023-07-13T01:40:29;101116.00;;;14.18;100.00
13420;BME280;6781;58.440;15.470;2023-07-13T01:42:57;101122.03;;;14.19;100.00
13420;BME280;6781;58.440;15.470;2023-07-13T01:45:25;100951.22;;;13.23;100.00
13420;BME280;6781;58.440;15.470;2023-07-13T01:47:52;101028.25;;;13.47;100.00
13420;BME280;6781;58.440;15.470;2023-07-13T01:50:19;101077.16;;;13.85;100.00
13420;BME280;6781;58.440;15.470;2023-07-13T01:52:46;101095.56;;;13.93;100.00
13420;BME280;6781;58.440;15.470;2023-07-13T01:55:14;100938.94;;;12.93;100.00
13420;BME280;6781;58.440;15.470;2023-07-13T01:57:42;101111.78;;;13.96;100.00
13420;BME280;6781;58.440;15.470;2023-07-13T02:00:11;101104.59;;;13.89;100.00
13420;BME280;6781;58.440;15.470;2023-07-13T02:02:38;101072.09;;;13.62;100.00
13420;BME280;6781;58.440;15.470;2023-07-13T02:07:41;101083.69;;;13.70;100.00
13420;BME280;6781;58.440;15.470;2023-07-13T02:10:10;101094.78;;;13.72;100.00
13420;BME280;6781;58.440;15.470;2023-07-13T02:12:40;100951.69;;;12.76;100.00
13420;BME280;6781;58.440;15.470;2023-07-13T02:15:10;101111.66;;;13.67;100.00
13420;BME280;6781;58.440;15.470;2023-07-13T02:17:37;101128.94;;;13.68;100.00
13420;BME280;6781;58.440;15.470;2023-07-13T02:20:05;101138.47;;;13.58;100.00
13420;BME280;6781;58.440;15.470;2023-07-13T02:22:33;101004.53;;;12.87;100.00
13420;BME280;6781;58.440;15.470;2023-07-13T02:25:01;100949.00;;;12.45;100.00
13420;BME280;6781;58.440;15.470;2023-07-13T02:27:28;101058.13;;;13.22;100.00
13420;BME280;6781;58.440;15.470;2023-07-13T02:29:55;101125.38;;;13.70;100.00
13420;BME280;6781;58.440;15.470;2023-07-13T02:32:24;101137.22;;;13.74;100.00
13420;BME280;6781;58.440;15.470;2023-07-13T02:34:51;101124.19;;;13.74;100.00
13420;BME280;6781;58.440;15.470;2023-07-13T02:37:19;101054.84;;;13.20;100.00
13420;BME280;6781;58.440;15.470;2023-07-13T02:39:47;101123.47;;;13.72;100.00
13420;BME280;6781;58.440;15.470;2023-07-13T02:42:14;101112.22;;;13.71;100.00
13420;BME280;6781;58.440;15.470;2023-07-13T02:44:42;101115.47;;;13.63;100.00
13420;BME280;6781;58.440;15.470;2023-07-13T02:47:09;101076.06;;;13.36;100.00
13420;BME280;6781;58.440;15.470;2023-07-13T02:49:37;101112.59;;;13.66;100.00
13420;BME280;6781;58.440;15.470;2023-07-13T02:52:05;101110.94;;;13.65;100.00
13420;BME280;6781;58.440;15.470;2023-07-13T02:54:32;101027.59;;;13.13;100.00
13420;BME280;6781;58.440;15.470;2023-07-13T02:56:59;100990.00;;;12.85;100.00
13420;BME280;6781;58.440;15.470;2023-07-13T02:59:26;101073.84;;;13.52;100.00
13420;BME280;6781;58.440;15.470;2023-07-13T03:01:54;101086.88;;;13.52;100.00
13420;BME280;6781;58.440;15.470;2023-07-13T03:04:21;101084.06;;;13.44;100.00
13420;BME280;6781;58.440;15.470;2023-07-13T03:06:49;101058.13;;;13.43;100.00
13420;BME280;6781;58.440;15.470;2023-07-13T03:09:17;101060.47;;;13.46;100.00
13420;BME280;6781;58.440;15.470;2023-07-13T03:11:44;101062.47;;;13.32;100.00
13420;BME280;6781;58.440;15.470;2023-07-13T03:14:11;101112.09;;;13.73;100.00
13420;BME280;6781;58.440;15.470;2023-07-13T03:16:38;100945.34;;;12.68;100.00
13420;BME280;6781;58.440;15.470;2023-07-13T03:19:05;101022.66;;;13.10;100.00
13420;BME280;6781;58.440;15.470;2023-07-13T03:21:32;101039.25;;;13.29;100.00
13420;BME280;6781;58.440;15.470;2023-07-13T03:24:00;101013.69;;;13.02;100.00
13420;BME280;6781;58.440;15.470;2023-07-13T03:26:28;101137.16;;;13.64;100.00
13420;BME280;6781;58.440;15.470;2023-07-13T03:28:55;101163.47;;;13.82;100.00
13420;BME280;6781;58.440;15.470;2023-07-13T03:31:27;101011.34;;;12.99;100.00
13420;BME280;6781;58.440;15.470;2023-07-13T03:33:55;101026.53;;;13.15;100.00
13420;BME280;6781;58.440;15.470;2023-07-13T03:36:25;101055.47;;;13.33;100.00
13420;BME280;6781;58.440;15.470;2023-07-13T03:38:54;101167.94;;;14.00;100.00
13420;BME280;6781;58.440;15.470;2023-07-13T03:41:24;101173.03;;;14.02;100.00
13420;BME280;6781;58.440;15.470;2023-07-13T03:43:52;101179.97;;;13.92;100.00
13420;BME280;6781;58.440;15.470;2023-07-13T03:46:19;101194.97;;;13.99;100.00
13420;BME280;6781;58.440;15.470;2023-07-13T03:48:47;101167.41;;;13.76;100.00
13420;BME280;6781;58.440;15.470;2023-07-13T03:51:16;101187.72;;;14.03;100.00
13420;BME280;6781;58.440;15.470;2023-07-13T03:53:44;101147.81;;;13.82;100.00
13420;BME280;6781;58.440;15.470;2023-07-13T03:56:12;101195.28;;;14.06;100.00
13420;BME280;6781;58.440;15.470;2023-07-13T03:58:43;101210.69;;;14.09;100.00
13420;BME280;6781;58.440;15.470;2023-07-13T04:01:11;101214.25;;;14.08;100.00
13420;BME280;6781;58.440;15.470;2023-07-13T04:03:39;101218.25;;;14.12;100.00
13420;BME280;6781;58.440;15.470;2023-07-13T04:06:08;101215.41;;;14.15;100.00
13420;BME280;6781;58.440;15.470;2023-07-13T04:08:41;101108.59;;;13.62;100.00
13420;BME280;6781;58.440;15.470;2023-07-13T04:11:08;101153.91;;;13.92;100.00
13420;BME280;6781;58.440;15.470;2023-07-13T04:13:35;101157.13;;;14.05;100.00
13420;BME280;6781;58.440;15.470;2023-07-13T04:16:04;101101.47;;;13.64;100.00
13420;BME280;6781;58.440;15.470;2023-07-13T04:18:31;101209.66;;;14.21;100.00
13420;BME280;6781;58.440;15.470;2023-07-13T04:20:58;101150.69;;;13.79;100.00
13420;BME280;6781;58.440;15.470;2023-07-13T04:23:26;101223.91;;;14.17;100.00
13420;BME280;6781;58.440;15.470;2023-07-13T04:25:53;101215.28;;;13.96;100.00
13420;BME280;6781;58.440;15.470;2023-07-13T04:28:21;101235.88;;;13.99;100.00
13420;BME280;6781;58.440;15.470;2023-07-13T04:30:48;101085.00;;;12.90;100.00
13420;BME280;6781;58.440;15.470;2023-07-13T04:33:17;101289.28;;;14.16;100.00
13420;BME280;6781;58.440;15.470;2023-07-13T04:35:47;101282.97;;;14.18;100.00
13420;BME280;6781;58.440;15.470;2023-07-13T04:38:15;101116.31;;;13.00;100.00
13420;BME280;6781;58.440;15.470;2023-07-13T04:40:44;101258.38;;;13.58;100.00
13420;BME280;6781;58.440;15.470;2023-07-13T04:43:11;101214.09;;;13.47;100.00
13420;BME280;6781;58.440;15.470;2023-07-13T04:45:38;101205.78;;;13.10;100.00
13420;BME280;6781;58.440;15.470;2023-07-13T04:48:06;101293.81;;;13.61;100.00
13420;BME280;6781;58.440;15.470;2023-07-13T04:50:36;101382.31;;;14.26;100.00
13420;BME280;6781;58.440;15.470;2023-07-13T04:53:03;101388.81;;;14.32;100.00
13420;BME280;6781;58.440;15.470;2023-07-13T04:55:31;101311.56;;;13.88;100.00
13420;BME280;6781;58.440;15.470;2023-07-13T04:57:58;101309.53;;;13.71;100.00
13420;BME280;6781;58.440;15.470;2023-07-13T05:00:26;101447.19;;;14.42;100.00
13420;BME280;6781;58.440;15.470;2023-07-13T05:02:54;101313.81;;;13.60;100.00
13420;BME280;6781;58.440;15.470;2023-07-13T05:05:22;101418.84;;;14.26;100.00
13420;BME280;6781;58.440;15.470;2023-07-13T05:07:51;101467.19;;;14.53;100.00
13420;BME280;6781;58.440;15.470;2023-07-13T05:10:18;101457.75;;;14.29;100.00
13420;BME280;6781;58.440;15.470;2023-07-13T05:12:46;101284.50;;;13.36;100.00
13420;BME280;6781;58.440;15.470;2023-07-13T05:15:13;101515.75;;;14.76;100.00
13420;BME280;6781;58.440;15.470;2023-07-13T05:17:40;101421.00;;;14.21;100.00
13420;BME280;6781;58.440;15.470;2023-07-13T05:20:08;101516.88;;;14.94;100.00
13420;BME280;6781;58.440;15.470;2023-07-13T05:22:36;101472.38;;;14.64;100.00
13420;BME280;6781;58.440;15.470;2023-07-13T05:25:05;101466.91;;;14.67;100.00
13420;BME280;6781;58.440;15.470;2023-07-13T05:27:33;101428.28;;;14.50;100.00
13420;BME280;6781;58.440;15.470;2023-07-13T05:30:02;101472.44;;;14.74;100.00
13420;BME280;6781;58.440;15.470;2023-07-13T05:32:29;101537.66;;;15.17;100.00
13420;BME280;6781;58.440;15.470;2023-07-13T05:34:56;101353.22;;;14.10;100.00
13420;BME280;6781;58.440;15.470;2023-07-13T05:37:23;101549.84;;;15.27;100.00
13420;BME280;6781;58.440;15.470;2023-07-13T05:39:51;101523.81;;;15.26;100.00
13420;BME280;6781;58.440;15.470;2023-07-13T05:42:19;101486.41;;;15.05;100.00
13420;BME280;6781;58.440;15.470;2023-07-13T05:44:46;101474.81;;;14.97;100.00
13420;BME280;6781;58.440;15.470;2023-07-13T05:47:13;101422.94;;;14.72;100.00
13420;BME280;6781;58.440;15.470;2023-07-13T05:49:40;101443.47;;;14.97;100.00
13420;BME280;6781;58.440;15.470;2023-07-13T05:52:08;101471.41;;;15.27;100.00
13420;BME280;6781;58.440;15.470;2023-07-13T05:54:35;101423.97;;;15.02;100.00
13420;BME280;6781;58.440;15.470;2023-07-13T05:57:03;101509.75;;;15.69;100.00
13420;BME280;6781;58.440;15.470;2023-07-13T05:59:31;101523.44;;;15.82;100.00
13420;BME280;6781;58.440;15.470;2023-07-13T06:01:58;101514.78;;;15.91;100.00
13420;BME280;6781;58.440;15.470;2023-07-13T06:04:25;101471.38;;;15.79;100.00
13420;BME280;6781;58.440;15.470;2023-07-13T06:06:53;101491.50;;;15.88;100.00
13420;BME280;6781;58.440;15.470;2023-07-13T06:09:20;101494.53;;;15.93;100.00
13420;BME280;6781;58.440;15.470;2023-07-13T06:11:47;101465.22;;;15.99;100.00
13420;BME280;6781;58.440;15.470;2023-07-13T06:14:14;101430.09;;;15.92;100.00
13420;BME280;6781;58.440;15.470;2023-07-13T06:16:42;101449.41;;;16.10;100.00
13420;BME280;6781;58.440;15.470;2023-07-13T06:19:09;101361.50;;;15.59;100.00
13420;BME280;6781;58.440;15.470;2023-07-13T06:21:36;101341.09;;;15.73;100.00
13420;BME280;6781;58.440;15.470;2023-07-13T06:24:04;101437.56;;;16.45;100.00
13420;BME280;6781;58.440;15.470;2023-07-13T06:26:31;101335.47;;;15.97;100.00
13420;BME280;6781;58.440;15.470;2023-07-13T06:28:58;101332.03;;;16.35;100.00
13420;BME280;6781;58.440;15.470;2023-07-13T06:31:25;101344.91;;;16.84;100.00
13420;BME280;6781;58.440;15.470;2023-07-13T06:33:54;101264.28;;;16.69;100.00
13420;BME280;6781;58.440;15.470;2023-07-13T06:36:21;101134.44;;;16.29;100.00
13420;BME280;6781;58.440;15.470;2023-07-13T06:38:48;101059.59;;;16.09;100.00
13420;BME280;6781;58.440;15.470;2023-07-13T06:41:16;101184.16;;;16.94;100.00
13420;BME280;6781;58.440;15.470;2023-07-13T06:43:43;101167.03;;;17.17;100.00
13420;BME280;6781;58.440;15.470;2023-07-13T06:46:10;101093.34;;;17.20;100.00
13420;BME280;6781;58.440;15.470;2023-07-13T06:48:37;101051.63;;;17.35;100.00
13420;BME280;6781;58.440;15.470;2023-07-13T06:51:05;101035.63;;;17.46;100.00
13420;BME280;6781;58.440;15.470;2023-07-13T06:53:32;100990.06;;;17.47;100.00
13420;BME280;6781;58.440;15.470;2023-07-13T06:55:59;100779.44;;;16.62;100.00
13420;BME280;6781;58.440;15.470;2023-07-13T06:58:27;100712.28;;;16.53;100.00
13420;BME280;6781;58.440;15.470;2023-07-13T07:00:54;100911.38;;;17.89;100.00
13420;BME280;6781;58.440;15.470;2023-07-13T07:03:21;100796.63;;;17.49;100.00
13420;BME280;6781;58.440;15.470;2023-07-13T07:05:49;100791.66;;;17.96;100.00
13420;BME280;6781;58.440;15.470;2023-07-13T07:08:17;100704.06;;;17.73;100.00
13420;BME280;6781;58.440;15.470;2023-07-13T07:10:45;100585.84;;;17.34;100.00
13420;BME280;6781;58.440;15.470;2023-07-13T07:13:12;100694.06;;;18.48;100.00
13420;BME280;6781;58.440;15.470;2023-07-13T07:15:39;100606.56;;;18.08;100.00
13420;BME280;6781;58.440;15.470;2023-07-13T07:18:06;100606.22;;;18.11;100.00
13420;BME280;6781;58.440;15.470;2023-07-13T07:20:33;100584.09;;;18.45;100.00
13420;BME280;6781;58.440;15.470;2023-07-13T07:23:01;100519.47;;;18.36;100.00
13420;BME280;6781;58.440;15.470;2023-07-13T07:25:29;100544.69;;;18.45;100.00
13420;BME280;6781;58.440;15.470;2023-07-13T07:27:59;100524.94;;;18.26;100.00
13420;BME280;6781;58.440;15.470;2023-07-13T07:30:26;100484.03;;;18.32;100.00
13420;BME280;6781;58.440;15.470;2023-07-13T07:32:54;100483.63;;;18.43;100.00
13420;BME280;6781;58.440;15.470;2023-07-13T07:35:21;100441.25;;;18.46;100.00
13420;BME280;6781;58.440;15.470;2023-07-13T07:37:50;100389.56;;;18.24;100.00
13420;BME280;6781;58.440;15.470;2023-07-13T07:40:18;100390.53;;;18.45;100.00
13420;BME280;6781;58.440;15.470;2023-07-13T07:42:47;100245.28;;;17.70;100.00
13420;BME280;6781;58.440;15.470;2023-07-13T07:45:14;100378.84;;;19.15;100.00
13420;BME280;6781;58.440;15.470;2023-07-13T07:47:41;100240.47;;;19.14;100.00
13420;BME280;6781;58.440;15.470;2023-07-13T07:50:09;100255.34;;;19.79;100.00
13420;BME280;6781;58.440;15.470;2023-07-13T07:52:36;100244.59;;;20.30;100.00
13420;BME280;6781;58.440;15.470;2023-07-13T07:55:05;100260.50;;;20.84;100.00
13420;BME280;6781;58.440;15.470;2023-07-13T07:57:33;100207.34;;;20.80;100.00
13420;BME280;6781;58.440;15.470;2023-07-13T08:00:03;100237.59;;;20.43;100.00
13420;BME280;6781;58.440;15.470;2023-07-13T08:02:30;100146.56;;;19.72;100.00
13420;BME280;6781;58.440;15.470;2023-07-13T08:04:57;100213.00;;;20.02;100.00
13420;BME280;6781;58.440;15.470;2023-07-13T08:07:24;100069.91;;;19.54;100.00
13420;BME280;6781;58.440;15.470;2023-07-13T08:09:52;100189.69;;;20.33;100.00
13420;BME280;6781;58.440;15.470;2023-07-13T08:12:19;100218.84;;;20.32;100.00
13420;BME280;6781;58.440;15.470;2023-07-13T08:14:50;100213.06;;;20.15;100.00
13420;BME280;6781;58.440;15.470;2023-07-13T08:17:20;100187.00;;;19.92;100.00
13420;BME280;6781;58.440;15.470;2023-07-13T08:19:47;100108.53;;;19.04;100.00
13420;BME280;6781;58.440;15.470;2023-07-13T08:22:14;100105.75;;;19.12;100.00
13420;BME280;6781;58.440;15.470;2023-07-13T08:24:42;100168.03;;;20.03;100.00
13420;BME280;6781;58.440;15.470;2023-07-13T08:27:10;100132.97;;;20.37;100.00
13420;BME280;6781;58.440;15.470;2023-07-13T08:29:37;100178.31;;;21.48;100.00
13420;BME280;6781;58.440;15.470;2023-07-13T08:32:06;100124.50;;;21.36;100.00
13420;BME280;6781;58.440;15.470;2023-07-13T08:34:36;100155.16;;;21.50;100.00
13420;BME280;6781;58.440;15.470;2023-07-13T08:37:06;100131.53;;;20.89;100.00
13420;BME280;6781;58.440;15.470;2023-07-13T08:39:34;100161.44;;;20.55;100.00
13420;BME280;6781;58.440;15.470;2023-07-13T08:42:03;100149.44;;;20.11;100.00
13420;BME280;6781;58.440;15.470;2023-07-13T08:44:49;100131.59;;;20.07;100.00
13420;BME280;6781;58.440;15.470;2023-07-13T08:47:23;100131.78;;;20.05;100.00
13420;BME280;6781;58.440;15.470;2023-07-13T08:49:53;100110.34;;;19.74;100.00
13420;BME280;6781;58.440;15.470;2023-07-13T08:52:28;100164.59;;;20.98;100.00
13420;BME280;6781;58.440;15.470;2023-07-13T08:55:04;100153.88;;;21.13;100.00
13420;BME280;6781;58.440;15.470;2023-07-13T08:57:34;100143.38;;;21.26;100.00
13420;BME280;6781;58.440;15.470;2023-07-13T09:00:02;100020.59;;;20.77;100.00
13420;BME280;6781;58.440;15.470;2023-07-13T09:02:41;100136.41;;;22.24;100.00
13420;BME280;6781;58.440;15.470;2023-07-13T09:05:13;100127.28;;;22.58;100.00
13420;BME280;6781;58.440;15.470;2023-07-13T09:08:00;100087.91;;;22.50;100.00
13420;BME280;6781;58.440;15.470;2023-07-13T09:10:30;99955.66;;;21.29;100.00
13420;BME280;6781;58.440;15.470;2023-07-13T09:13:09;100122.69;;;22.47;100.00
13420;BME280;6781;58.440;15.470;2023-07-13T09:15:42;100119.09;;;22.66;100.00
13420;BME280;6781;58.440;15.470;2023-07-13T09:18:13;100123.53;;;22.41;100.00
13420;BME280;6781;58.440;15.470;2023-07-13T09:20:48;100141.34;;;21.61;100.00
13420;BME280;6781;58.440;15.470;2023-07-13T09:23:19;100059.72;;;20.94;100.00
13420;BME280;6781;58.440;15.470;2023-07-13T09:25:49;100100.16;;;21.40;100.00
13420;BME280;6781;58.440;15.470;2023-07-13T09:28:22;99976.38;;;20.46;100.00
13420;BME280;6781;58.440;15.470;2023-07-13T09:30:54;100080.88;;;21.27;100.00
13420;BME280;6781;58.440;15.470;2023-07-13T09:33:23;100151.44;;;22.68;100.00
13420;BME280;6781;58.440;15.470;2023-07-13T09:35:52;100128.78;;;22.86;100.00
13420;BME280;6781;58.440;15.470;2023-07-13T09:38:21;100115.25;;;23.82;100.00
13420;BME280;6781;58.440;15.470;2023-07-13T09:40:59;100129.00;;;24.09;100.00
13420;BME280;6781;58.440;15.470;2023-07-13T09:43:29;100048.19;;;23.38;100.00
13420;BME280;6781;58.440;15.470;2023-07-13T09:45:57;99973.13;;;22.58;100.00
13420;BME280;6781;58.440;15.470;2023-07-13T09:48:25;100122.16;;;23.08;100.00
13420;BME280;6781;58.440;15.470;2023-07-13T09:51:10;100060.88;;;22.48;100.00
13420;BME280;6781;58.440;15.470;2023-07-13T09:53:42;100063.84;;;22.58;100.00
13420;BME280;6781;58.440;15.470;2023-07-13T09:56:19;100062.91;;;23.77;100.00
13420;BME280;6781;58.440;15.470;2023-07-13T09:58:47;100006.09;;;23.55;100.00
13420;BME280;6781;58.440;15.470;2023-07-13T10:01:14;100035.25;;;23.73;100.00
13420;BME280;6781;58.440;15.470;2023-07-13T10:03:52;100022.97;;;23.35;100.00
13420;BME280;6781;58.440;15.470;2023-07-13T10:06:22;100107.59;;;24.28;100.00
13420;BME280;6781;58.440;15.470;2023-07-13T10:08:50;100091.75;;;24.22;100.00
13420;BME280;6781;58.440;15.470;2023-07-13T10:11:19;100061.03;;;24.32;100.00
13420;BME280;6781;58.440;15.470;2023-07-13T10:13:51;100050.84;;;24.48;100.00
13420;BME280;6781;58.440;15.470;2023-07-13T10:16:22;100031.88;;;23.84;100.00
13420;BME280;6781;58.440;15.470;2023-07-13T10:18:51;100084.63;;;24.82;100.00
13420;BME280;6781;58.440;15.470;2023-07-13T10:21:26;100096.75;;;24.30;100.00
13420;BME280;6781;58.440;15.470;2023-07-13T10:23:56;100012.16;;;23.62;100.00
13420;BME280;6781;58.440;15.470;2023-07-13T10:26:29;100096.91;;;23.98;100.00
13420;BME280;6781;58.440;15.470;2023-07-13T10:29:01;100014.09;;;22.80;100.00
13420;BME280;6781;58.440;15.470;2023-07-13T10:31:30;100087.03;;;23.19;100.00
13420;BME280;6781;58.440;15.470;2023-07-13T10:33:57;100054.91;;;23.41;100.00
13420;BME280;6781;58.440;15.470;2023-07-13T10:36:34;100075.66;;;23.44;100.00
13420;BME280;6781;58.440;15.470;2023-07-13T10:39:05;100067.47;;;23.88;100.00
13420;BME280;6781;58.440;15.470;2023-07-13T10:41:35;100102.75;;;24.55;100.00
13420;BME280;6781;58.440;15.470;2023-07-13T10:44:12;100101.13;;;24.84;100.00
13420;BME280;6781;58.440;15.470;2023-07-13T10:46:43;100057.97;;;24.77;100.00
13420;BME280;6781;58.440;15.470;2023-07-13T10:49:11;100086.88;;;24.97;100.00
13420;BME280;6781;58.440;15.470;2023-07-13T10:51:40;100090.06;;;24.87;100.00
13420;BME280;6781;58.440;15.470;2023-07-13T10:54:16;100047.63;;;24.57;100.00
13420;BME280;6781;58.440;15.470;2023-07-13T10:56:44;100050.06;;;24.29;100.00
13420;BME280;6781;58.440;15.470;2023-07-13T10:59:16;100098.66;;;24.41;100.00
13420;BME280;6781;58.440;15.470;2023-07-13T11:01:53;100101.38;;;24.34;100.00
13420;BME280;6781;58.440;15.470;2023-07-13T11:04:22;100096.00;;;24.71;100.00
13420;BME280;6781;58.440;15.470;2023-07-13T11:06:53;100026.84;;;23.94;100.00
13420;BME280;6781;58.440;15.470;2023-07-13T11:09:37;100092.44;;;23.99;100.00
13420;BME280;6781;58.440;15.470;2023-07-13T11:12:18;100103.97;;;23.86;100.00
13420;BME280;6781;58.440;15.470;2023-07-13T11:15:10;100090.50;;;23.88;100.00
13420;BME280;6781;58.440;15.470;2023-07-13T11:17:48;100092.88;;;23.53;100.00
13420;BME280;6781;58.440;15.470;2023-07-13T11:20:26;99996.31;;;23.12;100.00
13420;BME280;6781;58.440;15.470;2023-07-13T11:23:17;100005.59;;;23.21;100.00
13420;BME280;6781;58.440;15.470;2023-07-13T11:25:45;100091.25;;;23.77;100.00
13420;BME280;6781;58.440;15.470;2023-07-13T11:28:16;100073.38;;;23.90;100.00
13420;BME280;6781;58.440;15.470;2023-07-13T11:30:46;100105.97;;;23.91;100.00
13420;BME280;6781;58.440;15.470;2023-07-13T11:33:17;100073.81;;;23.87;100.00
13420;BME280;6781;58.440;15.470;2023-07-13T11:35:51;100013.13;;;23.43;100.00
13420;BME280;6781;58.440;15.470;2023-07-13T11:38:23;99979.44;;;23.50;100.00
13420;BME280;6781;58.440;15.470;2023-07-13T11:40:55;100068.19;;;24.14;100.00
13420;BME280;6781;58.440;15.470;2023-07-13T11:43:25;99969.28;;;24.01;100.00
13420;BME280;6781;58.440;15.470;2023-07-13T11:45:52;100056.50;;;24.93;100.00
13420;BME280;6781;58.440;15.470;2023-07-13T11:48:21;100069.94;;;25.10;96.56
13420;BME280;6781;58.440;15.470;2023-07-13T11:50:57;100045.34;;;25.14;96.79
13420;BME280;6781;58.440;15.470;2023-07-13T11:53:29;99982.66;;;24.90;94.98
13420;BME280;6781;58.440;15.470;2023-07-13T11:55:57;100074.91;;;25.18;98.09
13420;BME280;6781;58.440;15.470;2023-07-13T11:58:26;100077.31;;;24.36;98.67
13420;BME280;6781;58.440;15.470;2023-07-13T12:00:55;100074.41;;;24.08;96.69
13420;BME280;6781;58.440;15.470;2023-07-13T12:03:26;100050.41;;;23.84;99.11
13420;BME280;6781;58.440;15.470;2023-07-13T12:06:02;100083.38;;;23.70;100.00
13420;BME280;6781;58.440;15.470;2023-07-13T12:08:38;100009.97;;;23.09;100.00
13420;BME280;6781;58.440;15.470;2023-07-13T12:11:13;100086.16;;;23.75;100.00
13420;BME280;6781;58.440;15.470;2023-07-13T12:13:43;100068.19;;;23.59;100.00
13420;BME280;6781;58.440;15.470;2023-07-13T12:16:13;100028.47;;;23.77;100.00
13420;BME280;6781;58.440;15.470;2023-07-13T12:18:44;100079.69;;;24.08;100.00
13420;BME280;6781;58.440;15.470;2023-07-13T12:21:17;100086.38;;;24.28;100.00
13420;BME280;6781;58.440;15.470;2023-07-13T12:23:48;100098.94;;;24.51;100.00
13420;BME280;6781;58.440;15.470;2023-07-13T12:26:17;100023.84;;;23.29;100.00
13420;BME280;6781;58.440;15.470;2023-07-13T12:28:47;100045.84;;;23.30;100.00
13420;BME280;6781;58.440;15.470;2023-07-13T12:31:25;100050.94;;;23.50;100.00
13420;BME280;6781;58.440;15.470;2023-07-13T12:34:00;100084.09;;;23.59;100.00
13420;BME280;6781;58.440;15.470;2023-07-13T12:36:32;99897.03;;;21.72;100.00
13420;BME280;6781;58.440;15.470;2023-07-13T12:39:06;100094.50;;;22.28;100.00
13420;BME280;6781;58.440;15.470;2023-07-13T12:41:39;100094.88;;;22.38;100.00
13420;BME280;6781;58.440;15.470;2023-07-13T12:44:10;100104.28;;;22.21;100.00
13420;BME280;6781;58.440;15.470;2023-07-13T12:46:38;100012.88;;;21.09;100.00
13420;BME280;6781;58.440;15.470;2023-07-13T12:49:07;100113.16;;;21.35;100.00
13420;BME280;6781;58.440;15.470;2023-07-13T12:51:36;100118.22;;;21.50;100.00
13420;BME280;6781;58.440;15.470;2023-07-13T12:54:15;100117.78;;;21.73;100.00
13420;BME280;6781;58.440;15.470;2023-07-13T12:56:43;100114.56;;;21.58;100.00